Time;durP1;ratioP1;P1;durP2;ratioP2;P2;SDS_P1;SDS_P2;PMS_P1;PMS_P2;Temp;Humidity;BMP_temperature;BMP_pressure;BME280_temperature;BME280_humidity;BME280_pressure;Samples;Min_cycle;Max_cycle;Signal;HPM_P1;HPM_P2
2023/07/18 00:00:53;;;;;;;0.03;0.03;;;;;;;19.34;49.32;98045.41;5100093;28;20043;-74
2023/07/18 00:03:20;;;;;;;0.10;0.10;;;;;;;19.35;49.06;98047.06;5100084;28;20123;-72
2023/07/18 00:05:48;;;;;;;0.20;0.20;;;;;;;19.56;48.53;98051.03;5083018;28;20079;-72
2023/07/18 00:08:16;;;;;;;0.03;0.03;;;;;;;19.28;49.80;98051.78;5098803;28;20046;-72
2023/07/18 00:10:43;;;;;;;0.10;0.10;;;;;;;19.01;50.57;98057.69;5098186;28;20061;-72
2023/07/18 00:13:11;;;;;;;0.13;0.13;;;;;;;19.00;50.53;98057.94;5099779;28;20046;-72
2023/07/18 00:15:40;;;;;;;0.00;0.00;;;;;;;18.93;51.00;98054.53;5099103;28;20143;-72
2023/07/18 00:18:08;;;;;;;0.10;0.10;;;;;;;18.42;52.68;98055.19;5100539;28;20047;-74
2023/07/18 00:20:36;;;;;;;0.00;0.00;;;;;;;18.45;52.33;98054.75;5100287;28;20146;-73
2023/07/18 00:23:06;;;;;;;0.10;0.10;;;;;;;18.47;52.17;98048.06;5099858;28;20122;-74
2023/07/18 00:25:33;;;;;;;0.10;0.10;;;;;;;18.29;52.75;98050.81;5100659;28;20052;-72
2023/07/18 00:28:01;;;;;;;0.17;0.17;;;;;;;18.52;51.84;98048.16;5100500;28;20456;-72
2023/07/18 00:30:29;;;;;;;0.20;0.20;;;;;;;18.36;52.27;98050.75;5098755;28;20415;-72
2023/07/18 00:32:58;;;;;;;0.10;0.10;;;;;;;18.29;52.48;98057.06;5082015;28;20050;-73
2023/07/18 00:35:26;;;;;;;0.00;0.00;;;;;;;18.33;52.33;98057.44;5081877;28;20048;-72
2023/07/18 00:37:54;;;;;;;0.10;0.10;;;;;;;18.17;52.63;98053.50;5080909;28;20075;-72
2023/07/18 00:40:24;;;;;;;0.00;0.00;;;;;;;17.92;53.42;98053.69;5081586;28;20675;-72
2023/07/18 00:42:51;;;;;;;0.00;0.00;;;;;;;17.59;54.29;98062.22;5100458;28;20044;-72
2023/07/18 00:45:20;;;;;;;0.10;0.10;;;;;;;17.60;54.08;98060.34;5081334;28;20105;-72
2023/07/18 00:47:48;;;;;;;0.20;0.20;;;;;;;17.57;54.21;98058.09;5080094;28;20078;-73
2023/07/18 00:50:18;;;;;;;0.10;0.10;;;;;;;17.47;54.38;98060.50;5078325;28;20427;-72
2023/07/18 00:52:48;;;;;;;0.10;0.10;;;;;;;17.43;54.52;98053.94;5078522;28;20043;-74
2023/07/18 00:55:17;;;;;;;0.10;0.10;;;;;;;17.46;54.42;98058.84;5098950;28;20063;-73
2023/07/18 00:57:46;;;;;;;0.10;0.10;;;;;;;17.27;55.39;98052.66;5098338;28;20059;-74
2023/07/18 01:00:16;;;;;;;0.13;0.13;;;;;;;17.23;55.62;98052.28;5075957;28;20060;-72
2023/07/18 01:02:45;;;;;;;0.00;0.00;;;;;;;16.94;56.69;98047.63;5097740;28;20047;-73
2023/07/18 01:05:16;;;;;;;0.10;0.10;;;;;;;16.76;57.31;98055.72;5080398;28;20039;-73
2023/07/18 01:07:46;;;;;;;0.03;0.03;;;;;;;16.52;58.14;98047.38;5097852;28;20114;-72
2023/07/18 01:10:22;;;;;;;0.10;0.10;;;;;;;16.72;56.86;98057.19;5080567;28;20040;-73
2023/07/18 01:12:51;;;;;;;0.13;0.13;;;;;;;16.92;56.48;98049.75;5098309;28;20038;-73
2023/07/18 01:15:19;;;;;;;0.10;0.10;;;;;;;16.88;56.93;98056.63;5080491;28;20151;-73
2023/07/18 01:17:49;;;;;;;0.00;0.00;;;;;;;16.79;57.31;98039.91;5099631;28;20067;-73
2023/07/18 01:20:22;;;;;;;0.00;0.00;;;;;;;16.79;57.19;98053.41;5098364;28;20024;-73
2023/07/18 01:22:54;;;;;;;0.03;0.03;;;;;;;16.80;57.50;98044.25;5102991;28;20071;-73
2023/07/18 01:25:22;;;;;;;0.22;0.22;;;;;;;16.77;57.59;98044.72;5085879;28;20512;-73
2023/07/18 01:27:51;;;;;;;0.10;0.10;;;;;;;16.65;57.89;98038.38;5102131;28;20081;-73
2023/07/18 01:30:20;;;;;;;0.10;0.10;;;;;;;16.55;58.31;98038.03;5102218;28;20612;-73
2023/07/18 01:32:48;;;;;;;0.20;0.20;;;;;;;16.37;59.09;98033.44;5102981;28;20496;-73
2023/07/18 01:35:19;;;;;;;0.10;0.10;;;;;;;16.33;58.73;98042.16;5082469;28;20055;-73
2023/07/18 01:37:47;;;;;;;0.10;0.10;;;;;;;16.40;58.70;98035.69;5102703;28;20047;-73
2023/07/18 01:40:19;;;;;;;0.03;0.03;;;;;;;16.56;58.28;98036.19;5103953;28;20040;-73
2023/07/18 01:42:50;;;;;;;0.10;0.10;;;;;;;16.48;58.60;98035.41;5096845;28;20062;-73
2023/07/18 01:45:18;;;;;;;0.13;0.13;;;;;;;16.54;58.30;98041.78;5102072;28;20097;-73
2023/07/18 01:47:46;;;;;;;0.15;0.15;;;;;;;16.48;58.45;98039.97;5103476;28;20130;-73
2023/07/18 01:50:14;;;;;;;0.20;0.20;;;;;;;16.22;59.29;98043.72;5102730;28;20040;-73
2023/07/18 01:52:42;;;;;;;0.03;0.03;;;;;;;16.24;59.55;98043.50;5102613;28;20055;-73
2023/07/18 01:55:10;;;;;;;0.03;0.03;;;;;;;16.16;59.61;98052.69;5100257;28;20150;-73
2023/07/18 01:57:47;;;;;;;0.15;0.15;;;;;;;16.10;59.55;98042.75;5086396;28;20478;-73
2023/07/18 02:00:18;;;;;;;0.25;0.25;;;;;;;16.36;59.15;98033.66;5083798;28;20161;-73
2023/07/18 02:02:48;;;;;;;0.30;0.30;;;;;;;16.18;59.66;98039.81;5102740;28;20076;-73
2023/07/18 02:05:18;;;;;;;0.25;0.25;;;;;;;16.04;59.99;98038.25;5098989;28;20101;-73
2023/07/18 02:07:47;;;;;;;0.13;0.13;;;;;;;16.01;60.28;98039.50;5102667;28;20036;-73
2023/07/18 02:10:16;;;;;;;0.13;0.13;;;;;;;15.93;61.03;98037.09;5102081;28;20569;-73
2023/07/18 02:12:45;;;;;;;0.03;0.03;;;;;;;15.62;61.34;98037.91;5102186;28;20031;-73
2023/07/18 02:15:14;;;;;;;0.20;0.20;;;;;;;16.02;59.84;98041.16;5083968;28;20040;-74
2023/07/18 02:17:42;;;;;;;0.13;0.13;;;;;;;15.90;60.28;98037.53;5083738;28;20131;-72
2023/07/18 02:20:12;;;;;;;0.10;0.10;;;;;;;15.60;61.58;98039.97;5084163;28;20101;-72
2023/07/18 02:22:42;;;;;;;0.17;0.17;;;;;;;15.73;60.76;98034.53;5078330;28;20085;-72
2023/07/18 02:25:10;;;;;;;0.10;0.10;;;;;;;15.78;61.03;98034.69;5084158;28;20081;-73
2023/07/18 02:27:39;;;;;;;0.13;0.13;;;;;;;15.78;60.84;98036.56;5084692;28;20070;-74
2023/07/18 02:30:10;;;;;;;0.20;0.20;;;;;;;15.57;61.73;98040.44;5101463;28;20046;-71
2023/07/18 02:32:38;;;;;;;0.13;0.13;;;;;;;15.60;61.63;98034.59;5098300;28;20055;-71
2023/07/18 02:35:07;;;;;;;0.10;0.10;;;;;;;15.60;61.34;98039.97;5101128;28;20100;-71
2023/07/18 02:37:36;;;;;;;0.30;0.30;;;;;;;15.41;61.77;98044.41;5100955;28;20432;-72
2023/07/18 02:40:08;;;;;;;0.20;0.20;;;;;;;15.63;60.67;98039.56;5101455;28;20040;-72
2023/07/18 02:42:37;;;;;;;0.10;0.10;;;;;;;15.15;62.54;98041.84;5082827;28;20092;-71
2023/07/18 02:45:06;;;;;;;0.20;0.20;;;;;;;15.02;63.17;98044.56;5102087;28;20043;-72
2023/07/18 02:47:35;;;;;;;0.15;0.15;;;;;;;15.05;63.11;98049.53;5101143;28;20044;-71
2023/07/18 02:50:03;;;;;;;0.15;0.15;;;;;;;15.13;62.76;98043.91;5082456;28;20084;-72
2023/07/18 02:52:31;;;;;;;0.10;0.10;;;;;;;15.30;61.87;98033.47;5101396;28;20055;-73
2023/07/18 02:54:59;;;;;;;0.00;0.00;;;;;;;15.46;61.69;98032.19;5098567;28;20042;-72
2023/07/18 02:57:27;;;;;;;0.13;0.13;;;;;;;15.32;61.89;98040.31;5081953;28;20135;-72
2023/07/18 02:59:54;;;;;;;0.10;0.10;;;;;;;15.19;62.28;98034.16;5085139;28;20043;-73
2023/07/18 03:02:23;;;;;;;0.03;0.03;;;;;;;15.12;62.81;98042.25;5102544;28;20047;-75
2023/07/18 03:04:52;;;;;;;0.22;0.22;;;;;;;15.20;62.44;98033.13;5081256;28;20051;-72
2023/07/18 03:07:20;;;;;;;0.17;0.17;;;;;;;15.22;62.41;98042.63;5082110;28;20528;-72
2023/07/18 03:09:48;;;;;;;0.03;0.03;;;;;;;15.42;61.45;98040.69;5082421;28;20064;-72
2023/07/18 03:12:16;;;;;;;0.10;0.10;;;;;;;15.37;61.53;98043.16;5082957;28;20136;-72
2023/07/18 03:14:44;;;;;;;0.20;0.20;;;;;;;15.37;61.42;98051.25;5083139;28;20398;-72
2023/07/18 03:17:12;;;;;;;0.13;0.13;;;;;;;15.07;62.88;98060.88;5080416;28;20106;-72
2023/07/18 03:19:39;;;;;;;0.03;0.03;;;;;;;14.89;63.31;98047.28;5099987;28;20059;-72
2023/07/18 03:22:08;;;;;;;0.15;0.15;;;;;;;15.02;62.64;98053.47;5101515;28;20036;-73
2023/07/18 03:24:38;;;;;;;0.30;0.30;;;;;;;14.98;63.23;98048.69;5083180;28;20050;-72
2023/07/18 03:27:07;;;;;;;0.15;0.15;;;;;;;14.98;63.25;98052.22;5084156;28;20044;-71
2023/07/18 03:29:35;;;;;;;0.20;0.20;;;;;;;14.83;63.92;98051.66;5100991;28;20032;-72
2023/07/18 03:32:03;;;;;;;0.13;0.13;;;;;;;15.04;62.84;98055.94;5100067;28;20044;-72
2023/07/18 03:34:31;;;;;;;0.13;0.13;;;;;;;15.10;62.85;98056.94;5099888;28;20496;-72
2023/07/18 03:36:59;;;;;;;0.22;0.22;;;;;;;15.12;62.60;98047.63;5083235;28;20047;-72
2023/07/18 03:39:29;;;;;;;0.22;0.22;;;;;;;14.99;62.96;98058.41;5082063;28;20470;-72
2023/07/18 03:41:56;;;;;;;0.13;0.13;;;;;;;14.83;63.53;98064.25;5099304;28;20492;-73
2023/07/18 03:44:24;;;;;;;0.13;0.13;;;;;;;14.67;64.06;98065.50;5100022;28;20492;-72
2023/07/18 03:46:52;;;;;;;0.22;0.22;;;;;;;14.54;64.87;98065.53;5081110;28;20139;-72
2023/07/18 03:49:37;;;;;;;0.13;0.13;;;;;;;14.68;64.30;98062.63;5099745;28;20039;-72
2023/07/18 03:52:05;;;;;;;0.20;0.20;;;;;;;14.57;64.39;98060.56;5100074;28;20044;-72
2023/07/18 03:54:35;;;;;;;0.13;0.13;;;;;;;14.58;64.54;98056.03;5099886;28;20058;-72
2023/07/18 03:57:03;;;;;;;0.10;0.10;;;;;;;14.58;64.40;98056.03;5100446;28;20267;-73
2023/07/18 03:59:31;;;;;;;0.10;0.10;;;;;;;14.58;64.48;98062.22;5100229;28;20035;-72
2023/07/18 04:01:59;;;;;;;0.10;0.10;;;;;;;14.55;64.66;98045.69;5099839;28;20040;-72
2023/07/18 04:04:27;;;;;;;0.50;0.50;;;;;;;14.49;65.24;98044.66;5098015;28;20425;-72
2023/07/18 04:06:54;;;;;;;0.30;0.30;;;;;;;14.34;65.55;98047.53;5098432;28;20032;-72
2023/07/18 04:09:22;;;;;;;0.03;0.03;;;;;;;14.36;65.75;98046.50;5099701;28;20039;-72
2023/07/18 04:11:51;;;;;;;0.30;0.30;;;;;;;14.59;64.45;98044.25;5100658;28;20449;-72
2023/07/18 04:14:19;;;;;;;0.03;0.03;;;;;;;14.68;64.30;98043.81;5099841;28;20051;-72
2023/07/18 04:16:46;;;;;;;0.13;0.13;;;;;;;14.78;63.83;98040.69;5098753;28;20052;-72
2023/07/18 04:19:14;;;;;;;0.03;0.03;;;;;;;14.67;64.30;98047.53;5098097;28;20089;-72
2023/07/18 04:21:42;;;;;;;0.10;0.10;;;;;;;14.59;64.53;98061.19;5099082;28;20044;-72
2023/07/18 04:45:10;;;;;;;0.30;0.30;;;;;;;15.00;63.08;98050.16;5122332;27;20793;-72
2023/07/18 04:47:38;;;;;;;0.20;0.20;;;;;;;15.05;62.88;98049.53;5079490;28;20071;-72
2023/07/18 04:50:10;;;;;;;0.32;0.32;;;;;;;14.99;63.04;98048.50;5105426;28;20047;-72
2023/07/18 04:52:40;;;;;;;0.40;0.40;;;;;;;15.06;63.01;98051.97;5104879;28;20123;-71
2023/07/18 04:55:10;;;;;;;0.20;0.20;;;;;;;15.12;62.89;98052.19;5101915;28;20043;-71
2023/07/18 04:57:38;;;;;;;0.10;0.10;;;;;;;15.13;62.73;98056.53;5098059;28;20513;-70
2023/07/18 05:00:07;;;;;;;0.30;0.30;;;;;;;15.18;62.54;98054.84;5102900;28;20508;-71
2023/07/18 05:02:36;;;;;;;0.38;0.38;;;;;;;15.23;62.19;98043.47;5106073;28;20135;-71
2023/07/18 05:05:06;;;;;;;0.32;0.32;;;;;;;15.27;62.16;98052.72;5104986;28;20087;-71
2023/07/18 05:07:34;;;;;;;0.30;0.30;;;;;;;15.25;62.18;98057.53;5106596;28;20065;-71
2023/07/18 05:10:02;;;;;;;0.22;0.22;;;;;;;15.23;62.49;98062.28;5106820;28;20457;-71
2023/07/18 05:12:30;;;;;;;0.30;0.30;;;;;;;15.28;62.24;98070.53;5103476;28;20039;-71
2023/07/18 05:14:58;;;;;;;0.30;0.30;;;;;;;15.27;62.35;98064.31;5101076;28;20040;-71
2023/07/18 05:17:25;;;;;;;0.28;0.28;;;;;;;15.37;62.16;98064.69;5099910;28;20046;-71
2023/07/18 05:19:54;;;;;;;0.30;0.30;;;;;;;15.47;61.79;98066.91;5105565;28;20067;-71
2023/07/18 05:22:22;;;;;;;0.38;0.38;;;;;;;15.56;61.81;98060.31;5101113;28;20147;-71
2023/07/18 05:24:50;;;;;;;0.30;0.30;;;;;;;15.65;61.37;98056.31;5104485;28;20067;-71
2023/07/18 05:27:18;;;;;;;0.32;0.32;;;;;;;15.85;60.46;98052.69;5102107;28;20043;-71
2023/07/18 05:29:45;;;;;;;0.30;0.30;;;;;;;15.62;61.65;98051.38;5104930;28;20075;-71
2023/07/18 05:32:13;;;;;;;0.30;0.30;;;;;;;15.36;62.07;98057.69;5102776;28;20167;-71
2023/07/18 05:34:41;;;;;;;0.43;0.43;;;;;;;15.48;61.98;98059.69;5104019;28;20052;-71
2023/07/18 05:37:10;;;;;;;0.13;0.13;;;;;;;15.48;62.10;98057.81;5099102;28;20457;-71
2023/07/18 05:39:38;;;;;;;0.25;0.25;;;;;;;15.58;61.70;98043.94;5103209;28;20044;-70
2023/07/18 05:42:06;;;;;;;0.30;0.30;;;;;;;15.65;61.72;98052.81;5101136;28;20032;-70
2023/07/18 05:44:34;;;;;;;0.32;0.32;;;;;;;15.81;61.83;98056.84;5095485;28;20119;-70
2023/07/18 05:47:02;;;;;;;0.28;0.28;;;;;;;15.85;61.43;98045.44;5090960;28;20163;-71
2023/07/18 05:49:29;;;;;;;0.30;0.30;;;;;;;16.06;60.74;98050.47;5091136;28;20051;-71
2023/07/18 05:51:58;;;;;;;0.10;0.10;;;;;;;16.15;60.32;98051.84;5089396;28;20377;-71
2023/07/18 05:54:29;;;;;;;0.32;0.32;;;;;;;16.24;60.16;98049.72;5087507;28;20036;-71
2023/07/18 05:56:57;;;;;;;0.10;0.10;;;;;;;16.34;59.65;98060.00;5092165;28;20361;-71
2023/07/18 05:59:26;;;;;;;0.20;0.20;;;;;;;16.39;59.92;98041.31;5087370;28;20043;-71
2023/07/18 06:01:54;;;;;;;0.20;0.20;;;;;;;16.41;59.91;98045.41;5089243;28;20424;-71
2023/07/18 06:04:22;;;;;;;0.40;0.40;;;;;;;16.56;59.42;98039.69;5091317;28;20488;-71
2023/07/18 06:06:49;;;;;;;0.25;0.25;;;;;;;16.53;59.59;98034.75;5091948;28;20159;-71
2023/07/18 06:09:17;;;;;;;0.20;0.20;;;;;;;16.66;59.42;98042.75;5091043;28;20560;-71
2023/07/18 06:11:46;;;;;;;0.30;0.30;;;;;;;16.75;58.89;98033.31;5089237;28;20052;-71
2023/07/18 06:14:14;;;;;;;0.30;0.30;;;;;;;16.79;59.30;98039.91;5086518;28;20120;-71
2023/07/18 06:16:42;;;;;;;0.10;0.10;;;;;;;16.87;59.25;98041.50;5087768;28;20045;-71
2023/07/18 06:19:09;;;;;;;0.30;0.30;;;;;;;16.97;58.97;98039.09;5088692;28;20041;-71
2023/07/18 06:21:37;;;;;;;0.32;0.32;;;;;;;17.03;58.42;98038.19;5089672;28;20523;-71
2023/07/18 06:24:05;;;;;;;0.35;0.35;;;;;;;17.12;58.30;98036.88;5087886;28;20447;-71
2023/07/18 06:26:49;;;;;;;0.20;0.20;;;;;;;17.23;57.98;98044.19;5089775;28;20040;-71
2023/07/18 06:29:18;;;;;;;0.20;0.20;;;;;;;17.32;57.29;98042.03;5089264;28;20487;-71
2023/07/18 06:31:46;;;;;;;0.40;0.40;;;;;;;17.43;57.19;98035.88;5087501;28;20044;-71
2023/07/18 06:34:13;;;;;;;0.25;0.25;;;;;;;17.49;56.64;98031.41;5088146;28;20056;-71
2023/07/18 06:36:41;;;;;;;0.28;0.28;;;;;;;17.52;57.14;98023.69;5086848;28;20093;-71
2023/07/18 06:39:10;;;;;;;0.40;0.40;;;;;;;17.68;56.59;98026.81;5089260;28;20127;-71
2023/07/18 06:41:38;;;;;;;0.30;0.30;;;;;;;17.81;55.51;98027.47;5088561;28;20523;-70
2023/07/18 06:44:12;;;;;;;0.30;0.30;;;;;;;17.91;54.59;98022.31;5065678;28;20047;-72
2023/07/18 06:46:40;;;;;;;0.30;0.30;;;;;;;18.06;54.46;98021.09;5061028;28;20071;-70
2023/07/18 06:49:10;;;;;;;0.30;0.30;;;;;;;18.12;54.73;98020.16;5087636;28;20032;-71
2023/07/18 06:51:38;;;;;;;0.20;0.20;;;;;;;18.25;54.03;98018.06;5085936;28;20499;-71
2023/07/18 06:54:05;;;;;;;0.40;0.40;;;;;;;18.38;52.93;98022.41;5087731;28;20115;-71
2023/07/18 06:56:33;;;;;;;0.20;0.20;;;;;;;18.53;52.38;98011.97;5087258;28;20135;-71
2023/07/18 06:59:01;;;;;;;0.22;0.22;;;;;;;18.61;52.66;98021.63;5087766;28;20042;-71
2023/07/18 07:01:32;;;;;;;0.30;0.30;;;;;;;18.80;51.07;98016.91;5085940;28;20086;-71
2023/07/18 07:04:00;;;;;;;0.20;0.20;;;;;;;18.92;51.75;98017.72;5088242;28;20094;-71
2023/07/18 07:06:28;;;;;;;0.30;0.30;;;;;;;18.87;51.36;98010.34;5088237;28;20040;-71
2023/07/18 07:08:56;;;;;;;0.25;0.25;;;;;;;18.96;51.65;98006.19;5086265;28;20515;-71
2023/07/18 07:11:24;;;;;;;0.20;0.20;;;;;;;19.27;48.93;98013.06;5087966;28;20054;-71
2023/07/18 07:13:51;;;;;;;0.30;0.30;;;;;;;19.48;48.13;98008.06;5085836;28;20037;-71
2023/07/18 07:16:19;;;;;;;0.20;0.20;;;;;;;19.47;48.02;97996.41;5086473;28;20087;-71
2023/07/18 07:18:50;;;;;;;0.32;0.32;;;;;;;19.65;47.54;98001.66;5088858;28;20097;-70
2023/07/18 07:21:18;;;;;;;0.20;0.20;;;;;;;19.83;46.19;97995.19;5087588;28;20047;-72
2023/07/18 07:23:46;;;;;;;0.20;0.20;;;;;;;19.83;46.13;97991.69;5091797;28;20137;-71
2023/07/18 07:26:15;;;;;;;0.30;0.30;;;;;;;19.95;42.83;97993.25;5084660;28;20047;-71
2023/07/18 07:28:42;;;;;;;0.13;0.13;;;;;;;20.13;40.97;97993.03;5083839;28;20071;-71
2023/07/18 07:31:10;;;;;;;0.20;0.20;;;;;;;20.52;40.34;97984.97;5083334;28;20048;-71
2023/07/18 07:33:38;;;;;;;0.30;0.30;;;;;;;20.76;39.54;97982.91;5087657;28;20084;-70
2023/07/18 07:36:07;;;;;;;0.15;0.15;;;;;;;20.68;40.31;97970.56;5086494;28;20040;-71
2023/07/18 07:38:35;;;;;;;0.30;0.30;;;;;;;20.73;40.69;97978.78;5082285;28;20048;-71
2023/07/18 07:41:02;;;;;;;0.32;0.32;;;;;;;20.52;40.43;97982.28;5080777;28;20123;-71
2023/07/18 07:43:30;;;;;;;0.30;0.30;;;;;;;20.82;39.97;97973.75;5087611;28;20036;-71
2023/07/18 07:45:58;;;;;;;0.17;0.17;;;;;;;20.91;39.35;97974.13;5088821;28;20055;-71
2023/07/18 07:48:26;;;;;;;0.20;0.20;;;;;;;21.15;39.24;97964.66;5086589;28;20036;-71
2023/07/18 07:50:54;;;;;;;0.28;0.28;;;;;;;21.40;39.16;97967.69;5088545;28;20068;-71
2023/07/18 07:53:23;;;;;;;0.15;0.13;;;;;;;21.69;38.02;97971.00;5088133;28;20079;-71
2023/07/18 07:55:51;;;;;;;0.22;0.22;;;;;;;21.93;37.95;97972.31;5088378;28;20123;-71
2023/07/18 07:58:18;;;;;;;0.20;0.20;;;;;;;22.39;36.02;97966.47;5086456;28;20035;-70
2023/07/18 08:00:46;;;;;;;0.10;0.10;;;;;;;22.48;35.66;97963.00;5089746;28;20044;-70
2023/07/18 08:03:14;;;;;;;0.20;0.20;;;;;;;22.16;35.32;97954.88;5086028;28;20047;-70
2023/07/18 08:05:41;;;;;;;0.30;0.30;;;;;;;22.33;36.19;97949.28;5083342;28;20040;-71
2023/07/18 08:08:10;;;;;;;0.22;0.22;;;;;;;22.33;35.22;97952.00;5085064;28;20072;-70
2023/07/18 08:10:40;;;;;;;0.20;0.20;;;;;;;22.39;35.67;97955.59;5090322;28;20475;-70
2023/07/18 08:13:08;;;;;;;0.20;0.20;;;;;;;22.21;35.61;97948.66;5083720;28;20051;-70
2023/07/18 08:15:35;;;;;;;0.20;0.20;;;;;;;22.14;36.17;97948.03;5084199;28;20082;-72
2023/07/18 08:18:03;;;;;;;0.20;0.20;;;;;;;22.57;35.32;97944.28;5088121;28;20062;-70
2023/07/18 08:20:32;;;;;;;0.10;0.10;;;;;;;22.85;34.92;97938.47;5082639;28;20051;-71
2023/07/18 08:23:00;;;;;;;0.20;0.20;;;;;;;23.18;33.77;97939.97;5070842;28;20098;-71
2023/07/18 08:25:28;;;;;;;0.20;0.20;;;;;;;22.75;34.16;97932.13;5080324;28;20047;-70
2023/07/18 08:27:58;;;;;;;0.30;0.30;;;;;;;22.96;34.60;97928.44;5084619;28;20086;-70
2023/07/18 08:30:26;;;;;;;0.20;0.20;;;;;;;22.99;34.10;97930.63;5080142;28;20044;-70
2023/07/18 08:32:53;;;;;;;0.10;0.10;;;;;;;22.92;33.97;97928.16;5081807;28;20121;-73
2023/07/18 08:35:22;;;;;;;0.30;0.30;;;;;;;22.99;33.90;97927.91;5077857;28;20047;-73
2023/07/18 08:37:50;;;;;;;0.22;0.22;;;;;;;23.58;32.82;97931.09;5077505;28;20071;-73
2023/07/18 08:40:18;;;;;;;0.03;0.03;;;;;;;23.84;32.96;97920.25;5085577;28;20360;-73
2023/07/18 08:42:46;;;;;;;0.10;0.10;;;;;;;24.15;32.58;97908.25;5078765;28;20048;-75
2023/07/18 08:45:16;;;;;;;0.10;0.10;;;;;;;24.38;31.34;97906.88;5084347;28;20032;-74
2023/07/18 08:47:44;;;;;;;0.25;0.25;;;;;;;24.42;31.96;97907.94;5085417;28;20123;-73
2023/07/18 08:50:12;;;;;;;0.10;0.10;;;;;;;24.39;31.72;97905.78;5083310;28;20043;-73
2023/07/18 08:52:40;;;;;;;0.10;0.10;;;;;;;24.54;31.69;97899.47;5082728;28;20045;-75
2023/07/18 08:55:09;;;;;;;0.10;0.10;;;;;;;24.88;31.24;97895.81;5086844;28;20058;-73
2023/07/18 08:57:37;;;;;;;0.30;0.30;;;;;;;24.64;31.33;97886.59;5088093;28;20485;-76
2023/07/18 09:00:07;;;;;;;0.22;0.22;;;;;;;24.74;31.22;97893.94;5061714;28;20040;-74
2023/07/18 09:02:38;;;;;;;0.10;0.10;;;;;;;24.99;30.80;97887.59;5084157;28;20044;-73
2023/07/18 09:05:06;;;;;;;0.03;0.03;;;;;;;25.28;30.30;97887.72;5087963;28;20118;-72
2023/07/18 09:07:36;;;;;;;0.20;0.20;;;;;;;24.98;30.12;97884.06;5086874;28;20052;-75
2023/07/18 09:10:04;;;;;;;0.20;0.20;;;;;;;25.00;30.40;97887.31;5086694;28;20126;-74
2023/07/18 09:12:35;;;;;;;0.20;0.20;;;;;;;25.23;30.11;97881.16;5081934;28;20040;-75
2023/07/18 09:15:03;;;;;;;0.10;0.10;;;;;;;25.09;30.32;97882.09;5086961;28;20042;-76
2023/07/18 09:17:32;;;;;;;0.10;0.10;;;;;;;25.38;30.32;97865.78;5059213;28;20065;-75
2023/07/18 09:20:07;;;;;;;0.20;0.20;;;;;;;25.74;29.81;97864.47;5084725;28;20039;-75
2023/07/18 09:22:36;;;;;;;0.10;0.10;;;;;;;25.94;29.60;97869.78;5084762;28;20477;-75
2023/07/18 09:25:04;;;;;;;0.00;0.00;;;;;;;26.13;28.92;97855.38;5088273;28;20047;-73
2023/07/18 09:27:32;;;;;;;0.13;0.13;;;;;;;26.12;28.87;97860.03;5082919;28;20046;-75
2023/07/18 09:29:59;;;;;;;0.10;0.10;;;;;;;26.10;28.83;97850.47;5089940;28;20039;-75
2023/07/18 09:32:27;;;;;;;0.20;0.20;;;;;;;26.23;28.90;97858.81;5088797;28;20044;-75
2023/07/18 09:34:56;;;;;;;0.15;0.15;;;;;;;26.34;28.93;97851.34;5088658;28;20404;-75
2023/07/18 09:37:26;;;;;;;0.15;0.15;;;;;;;26.47;28.54;97850.69;5089442;28;20047;-75
2023/07/18 09:39:54;;;;;;;0.10;0.10;;;;;;;26.32;28.42;97848.09;5087959;28;20058;-75
2023/07/18 09:42:24;;;;;;;0.10;0.10;;;;;;;26.51;28.36;97837.19;5087776;28;20044;-75
2023/07/18 09:44:52;;;;;;;0.10;0.10;;;;;;;26.65;28.11;97840.88;5090339;28;20047;-75
2023/07/18 09:47:21;;;;;;;0.30;0.30;;;;;;;26.20;28.48;97848.44;5087294;28;20044;-74
2023/07/18 09:49:50;;;;;;;0.10;0.10;;;;;;;25.84;29.29;97841.69;5091544;28;20093;-74
2023/07/18 09:52:20;;;;;;;0.13;0.13;;;;;;;26.03;28.71;97836.31;5087902;28;20130;-74
2023/07/18 09:54:51;;;;;;;0.20;0.20;;;;;;;26.08;28.33;97836.25;5089504;28;20047;-74
2023/07/18 09:57:21;;;;;;;0.03;0.03;;;;;;;25.64;29.39;97828.19;5090080;28;20331;-74
2023/07/18 09:59:49;;;;;;;0.10;0.10;;;;;;;26.08;28.36;97844.47;5064591;28;20052;-74
2023/07/18 10:02:18;;;;;;;0.00;0.00;;;;;;;25.34;29.40;97831.91;5083845;28;20798;-74
2023/07/18 10:04:45;;;;;;;0.10;0.10;;;;;;;25.26;29.76;97833.34;5087772;28;20081;-74
2023/07/18 10:07:13;;;;;;;0.03;0.03;;;;;;;25.36;29.66;97821.50;5088145;28;20493;-74
2023/07/18 10:09:41;;;;;;;0.15;0.15;;;;;;;25.33;29.80;97813.91;5089694;28;20109;-74
2023/07/18 10:12:11;;;;;;;0.10;0.10;;;;;;;25.48;29.93;97805.56;5088158;28;20457;-74
2023/07/18 10:14:49;;;;;;;0.13;0.13;;;;;;;25.36;30.08;97805.94;5094031;28;20136;-74
2023/07/18 10:17:35;;;;;;;0.10;0.10;;;;;;;26.38;28.34;97797.63;5088230;28;20028;-74
2023/07/18 10:20:06;;;;;;;0.15;0.15;;;;;;;26.53;28.23;97796.66;5091037;28;20085;-74
2023/07/18 10:22:34;;;;;;;0.10;0.10;;;;;;;26.43;27.78;97802.25;5089500;28;20502;-74
2023/07/18 10:25:07;;;;;;;0.10;0.10;;;;;;;25.96;28.45;97790.94;5084139;28;20089;-75
2023/07/18 10:27:37;;;;;;;0.10;0.10;;;;;;;25.39;29.17;97794.44;5089418;28;20075;-74
2023/07/18 10:30:07;;;;;;;0.13;0.13;;;;;;;25.09;30.23;97776.34;5090376;28;20071;-74
2023/07/18 10:32:38;;;;;;;0.13;0.13;;;;;;;25.41;29.51;97778.56;5089748;28;20050;-75
2023/07/18 10:35:08;;;;;;;0.10;0.10;;;;;;;25.09;29.92;97776.34;5084202;28;20067;-75
2023/07/18 10:37:37;;;;;;;0.15;0.15;;;;;;;25.52;29.37;97757.44;5087646;28;20043;-74
2023/07/18 10:40:08;;;;;;;0.10;0.10;;;;;;;25.64;28.98;97759.81;5087082;28;20131;-73
2023/07/18 10:42:37;;;;;;;0.20;0.20;;;;;;;26.37;27.96;97749.47;5089765;28;20089;-74
2023/07/18 10:45:07;;;;;;;0.10;0.10;;;;;;;26.81;27.15;97753.81;5088163;28;20123;-74
2023/07/18 10:47:37;;;;;;;0.20;0.20;;;;;;;27.28;26.63;97750.13;5091042;28;20130;-72
2023/07/18 10:50:09;;;;;;;0.20;0.20;;;;;;;27.61;25.43;97748.25;5085278;28;20047;-71
2023/07/18 10:52:37;;;;;;;0.10;0.10;;;;;;;27.51;25.66;97745.66;5090641;28;20040;-72
2023/07/18 10:55:06;;;;;;;0.20;0.20;;;;;;;27.79;25.23;97732.84;5088568;28;20044;-71
2023/07/18 10:57:37;;;;;;;0.10;0.10;;;;;;;27.34;25.77;97725.06;5088799;28;20101;-72
2023/07/18 11:00:07;;;;;;;0.10;0.10;;;;;;;27.67;25.69;97728.63;5085733;28;20043;-71
2023/07/18 11:02:39;;;;;;;0.10;0.10;;;;;;;28.14;25.67;97723.91;5082752;28;20051;-71
2023/07/18 11:05:10;;;;;;;0.10;0.10;;;;;;;27.72;26.36;97728.53;5088746;28;20131;-71
2023/07/18 11:07:40;;;;;;;0.10;0.10;;;;;;;27.74;26.09;97725.50;5089630;28;20040;-72
2023/07/18 11:10:08;;;;;;;0.15;0.15;;;;;;;27.42;26.60;97721.63;5083666;28;20155;-71
2023/07/18 11:12:37;;;;;;;0.10;0.10;;;;;;;27.75;26.35;97730.69;5081685;28;20052;-71
2023/07/18 11:15:06;;;;;;;0.10;0.10;;;;;;;27.83;26.58;97725.59;5089572;28;20123;-72
2023/07/18 11:17:34;;;;;;;0.15;0.15;;;;;;;27.70;26.04;97728.06;5087388;28;20094;-71
2023/07/18 11:20:03;;;;;;;0.03;0.03;;;;;;;27.23;26.61;97741.97;5085157;28;20047;-71
2023/07/18 11:22:31;;;;;;;0.10;0.10;;;;;;;27.55;26.22;97735.72;5085370;28;20058;-71
2023/07/18 11:24:59;;;;;;;0.10;0.10;;;;;;;27.20;26.78;97735.16;5084899;28;20036;-72
2023/07/18 11:27:27;;;;;;;0.10;0.10;;;;;;;27.44;26.63;97715.84;5085309;28;20032;-71
2023/07/18 11:29:57;;;;;;;0.10;0.10;;;;;;;27.66;26.47;97717.97;5085265;28;20089;-71
2023/07/18 11:32:38;;;;;;;0.13;0.13;;;;;;;27.72;26.17;97708.53;5088101;28;20067;-71
2023/07/18 11:35:08;;;;;;;0.10;0.10;;;;;;;27.40;27.01;97698.38;5086084;28;20051;-71
2023/07/18 11:37:38;;;;;;;0.10;0.10;;;;;;;27.22;26.84;97691.81;5086199;28;20055;-71
2023/07/18 11:40:10;;;;;;;0.00;0.00;;;;;;;27.57;26.57;97692.34;5084861;28;20393;-72
2023/07/18 11:42:45;;;;;;;0.10;0.10;;;;;;;28.11;25.87;97692.41;5086291;28;20044;-71
2023/07/18 11:45:16;;;;;;;0.10;0.10;;;;;;;28.32;25.36;97689.25;5085888;28;20497;-71
2023/07/18 11:47:49;;;;;;;0.10;0.10;;;;;;;28.61;24.85;97681.47;5081377;28;20647;-71
2023/07/18 11:50:17;;;;;;;0.00;0.00;;;;;;;28.78;25.09;97684.38;5085674;28;20332;-71
2023/07/18 11:52:46;;;;;;;0.10;0.10;;;;;;;28.98;24.71;97672.09;5087114;28;20055;-71
2023/07/18 11:55:15;;;;;;;0.10;0.10;;;;;;;28.92;24.99;97670.59;5085862;28;20115;-72
2023/07/18 11:57:45;;;;;;;0.03;0.03;;;;;;;28.72;24.88;97658.13;5089788;28;20477;-71
2023/07/18 12:00:16;;;;;;;0.10;0.10;;;;;;;28.63;25.05;97645.44;5086570;28;20039;-72
2023/07/18 12:02:45;;;;;;;0.10;0.10;;;;;;;28.68;25.07;97648.06;5087909;28;20046;-71